Terminal Aerodrome Forecast
Issued by NWS Charleston, WV

Current Version | Previous Version | Text Only | Print | Product List | Glossary Off
Versions: 1 2 3 4 5 6 7 8 9 10 11 12 13 14 15 16 17 18 19 20 21 22

000
FTUS41 KRLX 210907 AAA
TAFBKW
TAF AMD
KBKW 210907Z 2109/2206 23006KT 6SM SHRA SCT009 OVC015
      TEMPO 2110/2113 BKN009
     FM211300 26007KT P6SM SHRA SCT003 OVC010
     FM211500 26007KT P6SM VCTS OVC010CB
     FM211700 26006KT P6SM OVC010
     FM212100 29011KT P6SM BKN015
     FM212300 30008KT P6SM SCT020=

USA.gov is the U.S. government's official web portal to all federal, state and local government web resources and services.